Sunday, April 22, 2018, 5:43 PM EDT
Back to Local

KJFK, Kennedy International Airport

Location: Rosedale, NY, United States Lat: 40.633
Local Time: 5:43 PM EDT (21:43 GMT) Lon: -73.767
Time Zone: US/Eastern Elev: 13 ft

Show me the last for .
Show Decoded

2018-04-22 16:51 METAR KJFK 222051Z 19018KT 10SM FEW250 12/M02 A3035 RMK AO2 SLP278 T01221022
                 56009 =
2018-04-22 15:51 METAR KJFK 221951Z 19014KT 10SM SCT250 14/M03 A3036 RMK AO2 SLP281 T01391028 =
2018-04-22 14:51 METAR KJFK 221851Z 18016KT 10SM SCT250 15/M04 A3037 RMK AO2 SLP285 T01501039 =
2018-04-22 13:51 METAR KJFK 221751Z 18011KT 10SM SCT250 16/M04 A3038 RMK AO2 SLP288 T01561044
                 10161 20100 56015 =
2018-04-22 12:51 METAR KJFK 221651Z 18008KT 10SM FEW250 15/M04 A3039 RMK AO2 SLP289 T01501039 =
2018-04-22 11:51 METAR KJFK 221551Z 20007KT 10SM FEW250 14/M06 A3041 RMK AO2 SLP296 T01441061 =
2018-04-22 10:51 METAR KJFK 221451Z VRB03KT 10SM FEW250 14/M08 A3042 RMK AO2 SLP302 T01441078
                 51002 =
2018-04-22 09:51 METAR KJFK 221351Z 35006KT 10SM FEW250 13/M08 A3043 RMK AO2 SLP302 T01331078 =
2018-04-22 08:51 METAR KJFK 221251Z VRB04KT 10SM FEW250 12/M07 A3042 RMK AO2 SLP302 T01221072 =
2018-04-22 07:51 METAR KJFK 221151Z 27005KT 10SM FEW250 10/M05 A3042 RMK AO2 SLP300 T01001050
                 10100 20050 51011 =
2018-04-22 06:51 METAR KJFK 221051Z 00000KT 10SM FEW250 05/M04 A3042 RMK AO2 SLP299 T00501044 =
2018-04-22 05:51 METAR KJFK 220951Z 34005KT 10SM FEW250 07/M07 A3039 RMK AO2 SLP291 T00671067 =
2018-04-22 04:51 METAR KJFK 220851Z 34007KT 10SM FEW250 06/M06 A3039 RMK AO2 SLP289 T00611061
                 50005 =
2018-04-22 03:51 METAR KJFK 220751Z 31006KT 10SM SCT250 07/M06 A3039 RMK AO2 SLP290 T00721061 =
2018-04-22 02:51 METAR KJFK 220651Z 35005KT 10SM SCT250 08/M06 A3038 RMK AO2 SLP287 T00781056 =
2018-04-22 01:51 METAR KJFK 220551Z 35006KT 10SM SCT250 09/M07 A3037 RMK AO2 SLP284 T00891067
                 10117 20072 51008 =
2018-04-22 00:51 METAR KJFK 220451Z 33010KT 10SM BKN250 10/M06 A3037 RMK AO2 SLP282 T01001061
                 401610033 =
2018-04-21 23:51 METAR KJFK 220351Z 33011KT 10SM BKN250 11/M06 A3035 RMK AO2 SLP278 T01111056 =
2018-04-21 22:51 METAR KJFK 220251Z 32009KT 10SM BKN250 11/M04 A3035 RMK AO2 SLP276 T01111044
                 51013 =
2018-04-21 21:51 METAR KJFK 220151Z 00000KT 10SM BKN250 08/06 A3034 RMK AO2 SLP273 T00830056 =
2018-04-21 20:51 METAR KJFK 220051Z 00000KT 10SM BKN240 07/04 A3032 RMK AO2 SLP267 T00720044 =
2018-04-21 19:51 METAR KJFK 212351Z 18008KT 10SM BKN240 08/04 A3031 RMK AO2 SLP263 T00830039
                 10161 20083 53009 =
2018-04-21 18:51 METAR KJFK 212251Z 19017KT 10SM BKN250 09/03 A3028 RMK AO2 SLP255 T00890028 =
2018-04-21 17:51 METAR KJFK 212151Z 19016KT 10SM BKN250 10/02 A3028 RMK AO2 SLP252 T01000017 =

Support USWX by starting your Amazon purchase here.